createdAt,value
2019-01-19T00:02:09.751Z,11.83
2019-01-19T00:05:17.812Z,11.80
2019-01-19T00:08:16.086Z,12.60
2019-01-19T00:11:02.874Z,12.10
2019-01-19T00:13:44.738Z,12.43
2019-01-19T00:16:34.249Z,11.80
2019-01-19T00:19:42.697Z,12.40
2019-01-19T00:22:23.335Z,12.63
2019-01-19T00:25:15.639Z,11.87
2019-01-19T00:28:13.051Z,12.77
2019-01-19T00:31:03.523Z,12.10
2019-01-19T00:33:57.402Z,12.43
2019-01-19T00:36:43.626Z,12.10
2019-01-19T00:39:48.436Z,13.43
2019-01-19T00:42:46.306Z,15.87
2019-01-19T00:45:54.651Z,14.43
2019-01-19T00:48:47.340Z,18.13
2019-01-19T00:51:41.124Z,19.70
2019-01-19T00:54:30.760Z,18.23
2019-01-19T00:57:25.095Z,15.77
2019-01-19T00:59:59.384Z,17.77
2019-01-19T01:03:04.986Z,15.77
2019-01-19T01:05:46.203Z,14.93
2019-01-19T01:08:46.000Z,17.00
2019-01-19T01:11:44.560Z,14.23
2019-01-19T01:14:53.066Z,14.40
2019-01-19T01:17:29.460Z,15.37
2019-01-19T01:20:37.838Z,14.97
2019-01-19T01:23:35.259Z,14.90
2019-01-19T01:26:43.726Z,13.67
2019-01-19T01:29:53.021Z,14.43
2019-01-19T01:32:46.619Z,16.47
2019-01-19T01:35:36.766Z,15.00
2019-01-19T01:38:16.940Z,15.13
2019-01-19T01:41:25.327Z,16.43
2019-01-19T01:44:23.539Z,12.83
2019-01-19T01:47:31.912Z,14.13
2019-01-19T01:50:17.988Z,16.33
2019-01-19T01:53:26.251Z,18.43
2019-01-19T01:56:00.027Z,18.47
2019-01-19T01:59:05.552Z,16.10
2019-01-19T02:01:43.247Z,17.17
2019-01-19T02:04:46.544Z,17.93
2019-01-19T02:07:54.831Z,20.03
2019-01-19T02:11:03.152Z,20.23
2019-01-19T02:14:08.490Z,19.83
2019-01-19T02:17:16.766Z,19.37
2019-01-19T02:20:26.845Z,18.33
2019-01-19T02:23:25.486Z,15.87
2019-01-19T02:26:33.791Z,18.07
2019-01-19T02:29:39.380Z,17.23
2019-01-19T02:32:31.741Z,18.83
2019-01-19T02:35:30.439Z,19.23
2019-01-19T02:38:29.862Z,16.43
2019-01-19T02:41:22.773Z,13.47
2019-01-19T02:44:23.301Z,15.63
2019-01-19T02:47:27.350Z,15.63
2019-01-19T02:50:27.025Z,13.33
2019-01-19T02:53:19.989Z,11.13
2019-01-19T02:56:00.715Z,17.00
2019-01-19T02:59:01.449Z,15.17
2019-01-19T03:01:40.311Z,12.67
2019-01-19T03:04:34.598Z,18.33
2019-01-19T03:07:34.304Z,11.97
2019-01-19T03:10:29.091Z,17.83
2019-01-19T03:13:37.434Z,16.83
2019-01-19T03:16:45.829Z,16.30
2019-01-19T03:19:27.734Z,18.33
2019-01-19T03:22:36.203Z,16.30
2019-01-19T03:25:44.851Z,18.17
2019-01-19T03:28:32.548Z,16.03
2019-01-19T03:31:40.913Z,18.30
2019-01-19T03:34:28.172Z,18.23
2019-01-19T03:37:36.481Z,18.77
2019-01-19T03:40:23.545Z,8.80
2019-01-19T03:43:07.887Z,18.57
2019-01-19T03:45:59.911Z,16.70
2019-01-19T03:49:08.320Z,17.93
2019-01-19T03:52:04.400Z,16.93
2019-01-19T03:54:57.445Z,13.07
2019-01-19T03:57:50.820Z,15.07
2019-01-19T04:00:59.179Z,19.30
2019-01-19T04:04:07.558Z,13.57
2019-01-19T04:07:07.638Z,20.03
2019-01-19T04:10:06.409Z,18.60
2019-01-19T04:13:14.927Z,17.50
2019-01-19T04:16:11.801Z,19.23
2019-01-19T04:19:04.869Z,20.30
2019-01-19T04:21:59.536Z,17.60
2019-01-19T04:24:49.206Z,19.07
2019-01-19T04:27:20.372Z,14.93
2019-01-19T04:29:50.622Z,16.50
2019-01-19T04:32:20.880Z,19.67
2019-01-19T04:34:51.001Z,17.63
2019-01-19T04:37:20.936Z,19.03
2019-01-19T04:39:51.476Z,18.57
2019-01-19T04:42:21.916Z,17.77
2019-01-19T04:44:51.954Z,17.17
2019-01-19T04:47:22.096Z,18.53
2019-01-19T04:49:53.077Z,17.00
2019-01-19T04:52:23.135Z,14.60
2019-01-19T04:54:53.177Z,19.47
2019-01-19T04:57:23.121Z,19.30
2019-01-19T04:59:53.169Z,19.87
2019-01-19T05:02:23.301Z,16.03
2019-01-19T05:04:53.268Z,18.10
2019-01-19T05:07:23.199Z,19.87
2019-01-19T05:09:53.370Z,18.27
2019-01-19T05:12:23.327Z,17.10
2019-01-19T05:14:53.333Z,13.13
2019-01-19T05:17:23.318Z,17.30
2019-01-19T05:19:53.427Z,18.53
2019-01-19T05:22:23.531Z,16.27
2019-01-19T05:24:53.871Z,16.97
2019-01-19T05:27:24.047Z,10.97
2019-01-19T05:29:54.325Z,17.43
2019-01-19T05:32:24.963Z,16.93
2019-01-19T05:34:55.407Z,17.10
2019-01-19T05:37:25.453Z,15.13
2019-01-19T05:39:55.735Z,15.77
2019-01-19T05:42:25.735Z,16.07
2019-01-19T05:44:55.710Z,15.90
2019-01-19T05:47:25.642Z,15.17
2019-01-19T05:49:56.907Z,12.83
2019-01-19T05:52:28.768Z,14.57
2019-01-19T05:54:58.949Z,15.67
2019-01-19T05:57:29.389Z,15.53
2019-01-19T05:59:59.428Z,12.37
2019-01-19T06:02:29.928Z,12.53
2019-01-19T06:05:00.969Z,16.10
2019-01-19T06:07:34.117Z,14.63
2019-01-19T06:10:04.481Z,14.73
2019-01-19T06:12:35.911Z,15.53
2019-01-19T06:15:07.541Z,16.87
2019-01-19T06:17:37.814Z,15.57
2019-01-19T06:20:09.053Z,16.07
2019-01-19T06:22:39.200Z,15.07
2019-01-19T06:25:10.055Z,14.40
2019-01-19T06:27:40.167Z,11.27
2019-01-19T06:30:16.513Z,14.60
2019-01-19T06:32:46.729Z,15.17
2019-01-19T06:35:17.030Z,13.23
2019-01-19T06:37:47.400Z,14.60
2019-01-19T06:40:18.211Z,15.73
2019-01-19T06:42:48.418Z,15.53
2019-01-19T06:45:22.069Z,16.03
2019-01-19T06:47:52.190Z,14.27
2019-01-19T06:50:22.273Z,14.60
2019-01-19T06:52:52.482Z,12.27
2019-01-19T06:55:26.569Z,12.57
2019-01-19T06:57:56.718Z,13.87
2019-01-19T07:00:26.822Z,12.80
2019-01-19T07:02:56.903Z,15.10
2019-01-19T07:05:27.053Z,14.77
2019-01-19T07:07:57.258Z,12.23
2019-01-19T07:10:27.695Z,13.53
2019-01-19T07:12:57.781Z,13.03
2019-01-19T07:15:27.944Z,16.03
2019-01-19T07:17:58.082Z,13.57
2019-01-19T07:20:30.952Z,13.30
2019-01-19T07:23:02.331Z,15.10
2019-01-19T07:25:32.339Z,12.27
2019-01-19T07:28:02.383Z,15.47
2019-01-19T07:30:32.570Z,14.13
2019-01-19T07:33:02.590Z,13.43
2019-01-19T07:35:32.643Z,13.40
2019-01-19T07:38:02.762Z,14.83
2019-01-19T07:40:32.837Z,17.93
2019-01-19T07:43:06.890Z,17.43
2019-01-19T07:45:36.971Z,17.43
2019-01-19T07:48:07.505Z,17.93
2019-01-19T07:50:37.507Z,14.53
2019-01-19T07:53:07.558Z,17.10
2019-01-19T07:55:37.792Z,16.63
2019-01-19T07:58:07.904Z,16.67
2019-01-19T08:00:37.952Z,16.73
2019-01-19T08:03:08.093Z,18.30
2019-01-19T08:05:38.414Z,14.50
2019-01-19T08:08:08.752Z,17.47
2019-01-19T08:10:38.801Z,14.10
2019-01-19T08:13:09.005Z,18.57
2019-01-19T08:15:39.070Z,16.77
2019-01-19T08:18:10.080Z,16.10
2019-01-19T08:20:40.267Z,17.93
2019-01-19T08:23:10.286Z,14.97
2019-01-19T08:25:41.336Z,17.43
2019-01-19T08:28:11.425Z,21.17
2019-01-19T08:30:41.525Z,22.50
2019-01-19T08:33:11.566Z,13.90
2019-01-19T08:35:42.762Z,17.47
2019-01-19T08:38:12.899Z,17.50
2019-01-19T08:40:43.742Z,16.73
2019-01-19T08:43:32.887Z,16.50
2019-01-19T08:46:04.911Z,13.03
2019-01-19T08:48:35.079Z,17.00
2019-01-19T08:51:05.091Z,14.90
2019-01-19T08:53:35.164Z,11.83
2019-01-19T08:56:05.369Z,14.87
2019-01-19T08:58:35.748Z,10.97
2019-01-19T09:01:06.133Z,16.17
2019-01-19T09:03:36.378Z,16.17
2019-01-19T09:06:06.417Z,12.97
2019-01-19T09:08:36.580Z,15.90
2019-01-19T09:11:06.895Z,16.07
2019-01-19T09:13:37.556Z,17.63
2019-01-19T09:16:17.153Z,16.83
2019-01-19T09:18:47.391Z,15.70
2019-01-19T09:21:17.625Z,14.17
2019-01-19T09:23:58.160Z,17.10
2019-01-19T09:26:28.673Z,17.00
2019-01-19T09:28:58.892Z,15.37
2019-01-19T09:31:29.032Z,16.70
2019-01-19T09:33:59.281Z,17.00
2019-01-19T09:36:29.831Z,15.43
2019-01-19T09:39:00.330Z,16.23
2019-01-19T09:41:30.201Z,16.47
2019-01-19T09:44:00.246Z,16.17
2019-01-19T09:46:34.244Z,16.10
2019-01-19T09:49:05.080Z,16.63
2019-01-19T09:51:35.176Z,15.47
2019-01-19T09:54:05.619Z,13.00
2019-01-19T09:56:35.647Z,13.80
2019-01-19T09:59:19.300Z,15.50
2019-01-19T10:02:00.568Z,16.50
2019-01-19T10:04:30.803Z,16.50
2019-01-19T10:07:00.938Z,16.50
2019-01-19T10:09:32.829Z,17.10
2019-01-19T10:12:02.992Z,16.10
2019-01-19T10:14:33.191Z,15.90
2019-01-19T10:17:03.130Z,13.00
2019-01-19T10:19:33.287Z,12.13
2019-01-19T10:22:03.430Z,12.80
2019-01-19T10:24:33.837Z,13.27
2019-01-19T10:27:04.073Z,12.77
2019-01-19T10:29:35.225Z,14.30
2019-01-19T10:32:05.413Z,13.87
2019-01-19T10:34:35.540Z,13.53
2019-01-19T10:37:05.752Z,12.80
2019-01-19T10:39:40.815Z,13.60
2019-01-19T10:42:10.993Z,13.00
2019-01-19T10:44:41.134Z,14.87
2019-01-19T10:47:11.187Z,13.87
2019-01-19T10:49:41.360Z,13.97
2019-01-19T10:52:11.807Z,13.43
2019-01-19T10:54:41.945Z,10.30
2019-01-19T10:57:12.082Z,7.20
2019-01-19T10:59:42.234Z,10.63
2019-01-19T11:02:13.398Z,11.97
2019-01-19T11:04:45.216Z,10.83
2019-01-19T11:07:15.329Z,12.27
2019-01-19T11:09:45.263Z,12.20
2019-01-19T11:12:16.972Z,11.23
2019-01-19T11:14:46.954Z,11.57
2019-01-19T11:17:16.951Z,10.80
2019-01-19T11:19:47.026Z,13.83
2019-01-19T11:22:20.279Z,12.37
2019-01-19T11:24:50.464Z,13.47
2019-01-19T11:27:20.551Z,13.33
2019-01-19T11:29:51.292Z,13.87
2019-01-19T11:32:21.362Z,14.50
2019-01-19T11:34:56.269Z,13.73
2019-01-19T11:37:27.941Z,13.73
2019-01-19T11:39:57.990Z,13.13
2019-01-19T11:42:27.943Z,12.23
2019-01-19T11:44:57.859Z,9.57
2019-01-19T11:47:27.830Z,15.53
2019-01-19T11:50:01.223Z,14.13
2019-01-19T11:53:00.013Z,12.20
2019-01-19T11:55:31.711Z,13.60
2019-01-19T11:58:03.723Z,13.63
2019-01-19T12:00:35.656Z,13.17
2019-01-19T12:03:06.361Z,13.17
2019-01-19T12:05:37.542Z,13.43
2019-01-19T12:08:08.871Z,12.77
2019-01-19T12:10:38.927Z,15.30
2019-01-19T12:13:09.409Z,15.57
2019-01-19T12:15:39.506Z,16.53
2019-01-19T12:18:10.929Z,13.47
2019-01-19T12:20:43.695Z,11.50
2019-01-19T12:23:13.679Z,12.00
2019-01-19T12:25:43.601Z,12.33
2019-01-19T12:28:13.957Z,12.53
2019-01-19T12:30:44.142Z,11.73
2019-01-19T12:33:14.282Z,11.77
2019-01-19T12:35:44.250Z,11.30
2019-01-19T12:38:14.358Z,12.27
2019-01-19T12:40:44.455Z,13.83
2019-01-19T12:43:20.517Z,13.10
2019-01-19T12:46:00.573Z,13.97
2019-01-19T12:48:32.780Z,13.30
2019-01-19T12:51:05.018Z,12.10
2019-01-19T12:53:44.904Z,13.93
2019-01-19T12:56:32.627Z,13.20
2019-01-19T12:59:09.170Z,14.23
2019-01-19T13:02:20.677Z,13.90
2019-01-19T13:06:30.445Z,13.07
2019-01-19T13:09:18.981Z,12.63
2019-01-19T13:12:40.360Z,13.07
2019-01-19T13:15:56.556Z,10.50
2019-01-19T13:18:59.511Z,13.50
2019-01-19T13:22:28.650Z,10.83
2019-01-19T13:25:36.505Z,13.30
2019-01-19T13:28:39.436Z,13.17
2019-01-19T13:31:21.315Z,13.10
2019-01-19T13:34:22.180Z,12.47
2019-01-19T13:37:28.925Z,13.00
2019-01-19T13:40:10.772Z,12.60
2019-01-19T13:42:57.471Z,11.63
2019-01-19T13:46:12.391Z,15.30
2019-01-19T13:49:21.163Z,13.53
2019-01-19T13:52:04.417Z,14.20
2019-01-19T13:55:19.536Z,14.10
2019-01-19T13:58:12.758Z,15.80
2019-01-19T14:01:26.738Z,16.03
2019-01-19T14:04:17.081Z,11.90
2019-01-19T14:07:12.217Z,14.73
2019-01-19T14:10:05.407Z,14.37
2019-01-19T14:13:15.114Z,11.47
2019-01-19T14:16:23.607Z,14.70
2019-01-19T14:19:15.552Z,15.33
2019-01-19T14:22:20.248Z,14.90
2019-01-19T14:25:28.603Z,16.53
2019-01-19T14:28:09.667Z,18.13
2019-01-19T14:31:02.571Z,13.63
2019-01-19T14:33:52.090Z,16.47
2019-01-19T14:36:37.940Z,15.33
2019-01-19T14:39:33.699Z,13.47
2019-01-19T14:42:18.407Z,16.23
2019-01-19T14:45:21.087Z,18.60
2019-01-19T14:48:29.619Z,17.17
2019-01-19T14:51:32.003Z,19.97
2019-01-19T14:54:28.106Z,21.53
2019-01-19T14:57:25.342Z,21.37
2019-01-19T15:00:22.363Z,20.67
2019-01-19T15:03:16.266Z,20.73
2019-01-19T15:06:13.720Z,22.73
2019-01-19T15:09:07.593Z,20.73
2019-01-19T15:12:04.576Z,22.43
2019-01-19T15:14:51.898Z,24.43
2019-01-19T15:18:00.452Z,23.07
2019-01-19T15:20:53.347Z,17.90
2019-01-19T15:24:01.731Z,20.43
2019-01-19T15:26:55.317Z,19.73
2019-01-19T15:29:56.112Z,24.17
2019-01-19T15:32:44.854Z,26.83
2019-01-19T15:35:31.948Z,28.27
2019-01-19T15:38:31.686Z,24.93
2019-01-19T15:41:40.164Z,17.93
2019-01-19T15:44:48.569Z,18.23
2019-01-19T15:47:58.218Z,17.13
2019-01-19T15:50:58.908Z,20.33
2019-01-19T15:53:49.885Z,16.17
2019-01-19T15:56:59.380Z,20.47
2019-01-19T16:00:08.008Z,24.83
2019-01-19T16:03:05.437Z,18.93
2019-01-19T16:06:02.504Z,19.37
2019-01-19T16:09:02.149Z,19.47
2019-01-19T16:12:12.121Z,14.37
2019-01-19T16:15:12.759Z,18.83
2019-01-19T16:18:12.127Z,17.30
2019-01-19T16:21:25.403Z,16.30
2019-01-19T16:24:13.845Z,17.37
2019-01-19T16:27:14.464Z,17.57
2019-01-19T16:29:58.477Z,17.87
2019-01-19T16:32:59.145Z,18.57
2019-01-19T16:35:44.271Z,20.00
2019-01-19T16:38:52.710Z,17.77
2019-01-19T16:41:52.424Z,21.67
2019-01-19T16:44:44.840Z,19.40
2019-01-19T16:47:42.280Z,27.87
2019-01-19T16:50:24.002Z,29.60
2019-01-19T16:53:03.535Z,22.67
2019-01-19T16:56:05.041Z,23.00
2019-01-19T16:59:01.628Z,24.50
2019-01-19T17:01:58.448Z,26.30
2019-01-19T17:05:03.401Z,17.80
2019-01-19T17:07:56.110Z,23.77
2019-01-19T17:11:01.344Z,25.73
2019-01-19T17:14:05.411Z,21.87
2019-01-19T17:17:02.191Z,29.37
2019-01-19T17:20:13.044Z,28.87
2019-01-19T17:23:11.313Z,24.03
2019-01-19T17:26:04.627Z,24.60
2019-01-19T17:29:14.231Z,21.93
2019-01-19T17:32:08.241Z,22.93
2019-01-19T17:35:23.308Z,23.17
2019-01-19T17:38:11.530Z,22.97
2019-01-19T17:41:23.727Z,24.57
2019-01-19T17:44:25.321Z,19.90
2019-01-19T17:47:33.760Z,21.37
2019-01-19T17:50:28.492Z,22.83
2019-01-19T17:53:37.030Z,21.03
2019-01-19T17:56:34.552Z,22.60
2019-01-19T17:59:31.659Z,20.30
2019-01-19T18:02:40.124Z,20.70
2019-01-19T18:05:27.249Z,19.20
2019-01-19T18:08:23.545Z,24.40
2019-01-19T18:11:31.880Z,29.83
2019-01-19T18:14:16.590Z,37.67
2019-01-19T18:17:24.925Z,36.13
2019-01-19T18:20:35.175Z,37.03
2019-01-19T18:23:40.046Z,36.53
2019-01-19T18:26:30.616Z,37.63
2019-01-19T18:29:27.235Z,39.23
2019-01-19T18:32:07.922Z,36.87
2019-01-19T18:34:52.728Z,37.50
2019-01-19T18:38:01.133Z,37.07
2019-01-19T18:41:02.058Z,42.13
2019-01-19T18:44:04.870Z,38.70
2019-01-19T18:47:16.462Z,36.93
2019-01-19T18:50:09.909Z,38.43
2019-01-19T18:53:05.308Z,38.93
2019-01-19T18:56:01.379Z,39.03
2019-01-19T18:58:58.678Z,38.57
2019-01-19T19:01:57.681Z,39.23
2019-01-19T19:05:11.020Z,38.83
2019-01-19T19:08:19.638Z,40.37
2019-01-19T19:11:27.614Z,37.70
2019-01-19T19:14:38.482Z,37.00
2019-01-19T19:17:41.993Z,33.93
2019-01-19T19:20:59.779Z,37.17
2019-01-19T19:24:24.303Z,37.80
2019-01-19T19:27:41.672Z,39.40
2019-01-19T19:30:32.953Z,40.80
2019-01-19T19:33:31.137Z,40.20
2019-01-19T19:36:43.181Z,40.67
2019-01-19T19:40:00.681Z,38.67
2019-01-19T19:43:04.778Z,39.30
2019-01-19T19:46:03.075Z,39.47
2019-01-19T19:49:03.653Z,41.03
2019-01-19T19:52:07.541Z,34.60
2019-01-19T19:54:40.520Z,38.53
2019-01-19T19:57:20.116Z,39.27
2019-01-19T20:00:00.702Z,40.70
2019-01-19T20:02:57.558Z,39.63
2019-01-19T20:05:52.477Z,36.73
2019-01-19T20:08:25.196Z,39.97
2019-01-19T20:11:37.310Z,38.23
2019-01-19T20:14:56.489Z,32.50
2019-01-19T20:17:29.868Z,29.37
2019-01-19T20:20:46.393Z,31.57
2019-01-19T20:23:47.421Z,32.23
2019-01-19T20:26:52.374Z,34.37
2019-01-19T20:29:56.367Z,35.43
2019-01-19T20:32:48.280Z,35.87
2019-01-19T20:35:22.023Z,38.13
2019-01-19T20:37:52.624Z,43.27
2019-01-19T20:40:35.552Z,43.17
2019-01-19T20:43:32.713Z,42.23
2019-01-19T20:46:03.488Z,48.00
2019-01-19T20:48:34.106Z,46.67
2019-01-19T20:51:13.321Z,42.83
2019-01-19T20:53:52.071Z,40.77
2019-01-19T20:56:36.065Z,40.90
2019-01-19T20:59:21.857Z,42.67
2019-01-19T21:02:17.649Z,40.83
2019-01-19T21:04:52.541Z,40.00
2019-01-19T21:07:24.227Z,41.77
2019-01-19T21:09:58.229Z,43.73
2019-01-19T21:12:33.652Z,41.37
2019-01-19T21:15:31.239Z,45.90
2019-01-19T21:18:17.100Z,45.63
2019-01-19T21:20:54.462Z,43.63
2019-01-19T21:23:38.671Z,43.50
2019-01-19T21:26:11.101Z,46.80
2019-01-19T21:28:58.910Z,47.00
2019-01-19T21:31:45.098Z,52.13
2019-01-19T21:34:20.278Z,53.43
2019-01-19T21:36:54.084Z,54.40
2019-01-19T21:39:42.477Z,55.17
2019-01-19T21:42:38.046Z,67.40
2019-01-19T21:45:13.620Z,78.47
2019-01-19T21:48:14.188Z,70.93
2019-01-19T21:51:01.909Z,67.53
2019-01-19T21:53:46.174Z,67.60
2019-01-19T21:56:31.139Z,67.73
2019-01-19T21:59:18.930Z,65.83
2019-01-19T22:02:02.061Z,64.83
2019-01-19T22:04:48.710Z,58.33
2019-01-19T22:07:49.231Z,60.47
2019-01-19T22:10:46.373Z,62.73
2019-01-19T22:13:31.135Z,61.00
2019-01-19T22:16:04.885Z,59.97
2019-01-19T22:18:51.161Z,57.00
2019-01-19T22:21:38.857Z,59.23
2019-01-19T22:24:20.784Z,54.63
2019-01-19T22:27:27.862Z,55.63
2019-01-19T22:30:14.786Z,53.77
2019-01-19T22:32:52.606Z,54.10
2019-01-19T22:35:35.446Z,56.23
2019-01-19T22:38:15.330Z,54.33
2019-01-19T22:41:00.795Z,53.40
2019-01-19T22:43:48.216Z,55.60
2019-01-19T22:46:38.514Z,55.23
2019-01-19T22:49:28.983Z,54.77
2019-01-19T22:52:00.162Z,52.37
2019-01-19T22:54:39.468Z,52.43
2019-01-19T22:57:19.750Z,53.67
2019-01-19T23:00:04.692Z,56.37
2019-01-19T23:02:46.077Z,53.80
2019-01-19T23:05:26.878Z,53.70
2019-01-19T23:08:14.167Z,54.83
2019-01-19T23:11:03.506Z,52.60
2019-01-19T23:13:42.894Z,52.43
2019-01-19T23:16:16.086Z,52.83
2019-01-19T23:18:46.173Z,56.70
2019-01-19T23:21:16.409Z,53.37
2019-01-19T23:23:46.420Z,54.50
2019-01-19T23:26:16.822Z,51.43
2019-01-19T23:28:46.929Z,54.83
2019-01-19T23:31:17.101Z,54.73
2019-01-19T23:33:47.138Z,53.20
2019-01-19T23:36:17.260Z,51.33
2019-01-19T23:38:48.978Z,53.80
2019-01-19T23:41:19.139Z,56.57
2019-01-19T23:43:50.158Z,53.20
2019-01-19T23:46:21.862Z,50.97
2019-01-19T23:48:51.980Z,50.67
2019-01-19T23:51:22.406Z,50.87
2019-01-19T23:53:53.568Z,54.50
2019-01-19T23:56:25.220Z,53.03
2019-01-19T23:58:55.193Z,53.73
